Time;durP1;ratioP1;P1;durP2;ratioP2;P2;SDS_P1;SDS_P2;PMS_P1;PMS_P2;Temp;Humidity;BMP_temperature;BMP_pressure;BME280_temperature;BME280_humidity;BME280_pressure;Samples;Min_cycle;Max_cycle;Signal;HPM_P1;HPM_P2
2021/06/28 00:00:05;;;;;;;8.68;7.60;;;;;;;;;;5136248;27;20286;-67
2021/06/28 00:02:33;;;;;;;8.38;7.57;;;;;;;;;;5136116;27;20658;-68
2021/06/28 00:05:01;;;;;;;9.18;8.32;;;;;;;;;;5136327;27;20282;-68
2021/06/28 00:07:30;;;;;;;8.75;7.78;;;;;;;;;;5135905;27;20293;-68
2021/06/28 00:09:59;;;;;;;8.70;8.00;;;;;;;;;;5136257;27;20234;-68
2021/06/28 00:12:27;;;;;;;8.82;8.13;;;;;;;;;;5135895;27;20205;-68
2021/06/28 00:14:56;;;;;;;9.10;8.30;;;;;;;;;;5135927;27;20198;-68
2021/06/28 00:17:25;;;;;;;8.82;8.02;;;;;;;;;;5136172;27;20209;-68
2021/06/28 00:19:53;;;;;;;9.13;8.32;;;;;;;;;;5135591;27;20290;-68
2021/06/28 00:22:22;;;;;;;8.93;8.02;;;;;;;;;;5135729;27;20709;-69
2021/06/28 00:24:50;;;;;;;8.93;8.13;;;;;;;;;;5135594;27;20602;-69
2021/06/28 00:27:23;;;;;;;8.70;8.00;;;;;;;;;;5135913;27;20229;-68
2021/06/28 00:29:51;;;;;;;8.55;7.75;;;;;;;;;;5135705;27;20179;-69
2021/06/28 00:32:19;;;;;;;8.68;7.88;;;;;;;;;;5135836;27;20294;-69
2021/06/28 00:34:47;;;;;;;8.27;7.57;;;;;;;;;;5135741;27;20198;-71
2021/06/28 00:37:15;;;;;;;8.52;7.72;;;;;;;;;;5135645;27;20240;-68
2021/06/28 00:39:44;;;;;;;8.63;7.78;;;;;;;;;;5135679;27;20298;-68
2021/06/28 00:42:12;;;;;;;8.48;7.68;;;;;;;;;;5135915;27;20199;-69
2021/06/28 00:44:42;;;;;;;8.23;7.53;;;;;;;;;;5135115;27;20607;-69
2021/06/28 00:47:10;;;;;;;7.68;6.97;;;;;;;;;;5135608;27;20198;-69
2021/06/28 00:49:38;;;;;;;7.90;7.30;;;;;;;;;;5135203;27;20321;-68
2021/06/28 00:52:07;;;;;;;7.90;7.20;;;;;;;;;;5134494;27;20234;-69
2021/06/28 00:54:35;;;;;;;7.82;7.20;;;;;;;;;;5134923;27;20658;-69
2021/06/28 00:57:03;;;;;;;7.22;6.57;;;;;;;;;;5135464;27;20289;-69
2021/06/28 00:59:32;;;;;;;7.68;6.97;;;;;;;;;;5128456;27;20199;-69
2021/06/28 01:02:04;;;;;;;7.43;6.82;;;;;;;;;;5114695;28;20294;-68
2021/06/28 01:04:32;;;;;;;6.97;6.38;;;;;;;;;;5114304;28;20199;-69
2021/06/28 01:07:00;;;;;;;7.53;6.82;;;;;;;;;;5114325;28;20199;-69
2021/06/28 01:09:28;;;;;;;6.63;6.03;;;;;;;;;;5114490;28;20312;-69
2021/06/28 01:11:56;;;;;;;7.30;6.60;;;;;;;;;;5114517;28;20219;-68
2021/06/28 01:14:25;;;;;;;6.78;6.20;;;;;;;;;;5114343;28;20191;-69
2021/06/28 01:16:53;;;;;;;6.82;6.22;;;;;;;;;;5114232;28;20714;-69
2021/06/28 01:19:24;;;;;;;6.65;6.05;;;;;;;;;;5114097;28;20642;-69
2021/06/28 01:21:53;;;;;;;7.18;6.55;;;;;;;;;;5114364;28;20278;-69
2021/06/28 01:24:22;;;;;;;6.53;6.03;;;;;;;;;;5114019;28;20215;-69
2021/06/28 01:26:51;;;;;;;6.90;6.20;;;;;;;;;;5114063;28;20677;-68
2021/06/28 01:29:19;;;;;;;7.88;6.53;;;;;;;;;;5113725;28;20655;-69
2021/06/28 01:31:47;;;;;;;6.70;6.10;;;;;;;;;;5114179;28;20214;-68
2021/06/28 01:34:16;;;;;;;6.90;6.20;;;;;;;;;;5113643;28;20659;-69
2021/06/28 01:36:44;;;;;;;6.22;5.72;;;;;;;;;;5114176;28;20199;-68
2021/06/28 01:39:12;;;;;;;6.32;5.82;;;;;;;;;;5113735;28;20208;-69
2021/06/28 01:41:42;;;;;;;6.45;5.45;;;;;;;;;;5114031;28;20201;-68
2021/06/28 01:44:10;;;;;;;6.20;5.65;;;;;;;;;;5113763;28;20211;-68
2021/06/28 01:46:38;;;;;;;6.13;5.60;;;;;;;;;;5113985;28;20195;-69
2021/06/28 01:49:06;;;;;;;6.07;5.57;;;;;;;;;;5113396;28;20262;-69
2021/06/28 01:51:35;;;;;;;6.00;5.50;;;;;;;;;;5113866;28;20293;-68
2021/06/28 01:54:03;;;;;;;6.10;5.50;;;;;;;;;;5113529;28;20195;-70
2021/06/28 01:56:31;;;;;;;6.50;5.85;;;;;;;;;;5113756;28;20199;-69
2021/06/28 01:59:01;;;;;;;6.10;5.60;;;;;;;;;;5113682;28;20289;-70
2021/06/28 02:01:29;;;;;;;6.20;5.60;;;;;;;;;;5113203;28;20256;-68
2021/06/28 02:03:57;;;;;;;6.50;6.00;;;;;;;;;;5113421;28;20223;-68
2021/06/28 02:06:25;;;;;;;6.28;5.68;;;;;;;;;;5113638;28;20237;-69
2021/06/28 02:08:53;;;;;;;5.93;5.43;;;;;;;;;;5113402;28;20202;-70
2021/06/28 02:11:22;;;;;;;5.93;5.43;;;;;;;;;;5113418;28;20227;-68
2021/06/28 02:13:50;;;;;;;6.13;5.63;;;;;;;;;;5114584;28;20191;-68
2021/06/28 02:16:19;;;;;;;6.47;5.97;;;;;;;;;;5117455;28;20302;-69
2021/06/28 02:18:48;;;;;;;6.75;6.15;;;;;;;;;;5118030;28;20579;-69
2021/06/28 02:21:16;;;;;;;6.35;5.75;;;;;;;;;;5114281;28;20203;-69
2021/06/28 02:23:44;;;;;;;7.05;6.45;;;;;;;;;;5113234;28;20215;-69
2021/06/28 02:26:13;;;;;;;6.18;5.65;;;;;;;;;;5113403;28;20195;-69
2021/06/28 02:28:43;;;;;;;6.40;5.78;;;;;;;;;;5112884;28;20199;-69
2021/06/28 02:31:12;;;;;;;6.20;5.70;;;;;;;;;;5113158;28;20294;-69
2021/06/28 02:33:43;;;;;;;5.75;5.25;;;;;;;;;;5113132;28;20648;-68
2021/06/28 02:36:11;;;;;;;6.15;5.65;;;;;;;;;;5113557;28;20298;-68
2021/06/28 02:38:39;;;;;;;6.38;5.75;;;;;;;;;;5113101;28;20195;-69
2021/06/28 02:41:08;;;;;;;5.72;5.22;;;;;;;;;;5113266;28;20234;-69
2021/06/28 02:43:36;;;;;;;6.40;5.90;;;;;;;;;;5113053;28;20211;-71
2021/06/28 02:46:05;;;;;;;6.15;5.65;;;;;;;;;;5112747;28;20624;-70
2021/06/28 02:48:33;;;;;;;6.65;6.05;;;;;;;;;;5113280;28;20195;-69
2021/06/28 02:51:03;;;;;;;6.80;6.15;;;;;;;;;;5133065;28;20317;-68
2021/06/28 02:53:32;;;;;;;7.18;6.57;;;;;;;;;;5133417;28;20182;-68
2021/06/28 02:56:12;;;;;;;6.93;6.25;;;;;;;;;;5133227;28;20202;-70
2021/06/28 02:58:41;;;;;;;6.50;5.90;;;;;;;;;;5133827;28;20274;-72
2021/06/28 03:01:09;;;;;;;6.57;5.97;;;;;;;;;;5133010;28;20198;-68
2021/06/28 03:03:37;;;;;;;7.63;6.63;;;;;;;;;;5133207;28;20218;-68
2021/06/28 03:06:07;;;;;;;6.78;6.20;;;;;;;;;;5133579;28;20195;-69
2021/06/28 03:08:35;;;;;;;7.90;7.20;;;;;;;;;;5133158;28;20565;-70
2021/06/28 03:11:05;;;;;;;7.10;6.50;;;;;;;;;;5133404;28;20198;-71
2021/06/28 03:13:33;;;;;;;8.02;7.00;;;;;;;;;;5134326;27;20201;-69
2021/06/28 03:16:02;;;;;;;7.35;6.65;;;;;;;;;;5137285;27;20285;-68
2021/06/28 03:18:30;;;;;;;7.40;6.78;;;;;;;;;;5137482;27;20207;-69
2021/06/28 03:20:58;;;;;;;7.55;6.80;;;;;;;;;;5137278;27;20235;-70
2021/06/28 03:23:28;;;;;;;7.57;6.70;;;;;;;;;;5136885;27;20285;-70
2021/06/28 03:25:57;;;;;;;7.50;6.90;;;;;;;;;;5136845;27;20621;-67
2021/06/28 03:28:25;;;;;;;7.80;6.88;;;;;;;;;;5137017;27;20205;-69
2021/06/28 03:30:53;;;;;;;8.13;7.32;;;;;;;;;;5136845;27;20726;-69
2021/06/28 03:33:22;;;;;;;7.95;7.25;;;;;;;;;;5136756;27;20689;-69
2021/06/28 03:35:50;;;;;;;8.55;7.68;;;;;;;;;;5136888;27;20290;-67
2021/06/28 03:38:18;;;;;;;7.72;7.03;;;;;;;;;;5136865;27;20281;-68
2021/06/28 03:40:48;;;;;;;8.13;7.35;;;;;;;;;;5136750;27;20305;-69
2021/06/28 03:43:16;;;;;;;8.10;7.38;;;;;;;;;;5136607;27;20293;-68
2021/06/28 03:45:46;;;;;;;7.95;7.03;;;;;;;;;;5136405;27;20584;-69
2021/06/28 03:48:14;;;;;;;8.02;7.28;;;;;;;;;;5136347;27;20666;-71
2021/06/28 03:50:43;;;;;;;8.38;7.60;;;;;;;;;;5136152;27;20309;-68
2021/06/28 03:53:11;;;;;;;9.00;8.20;;;;;;;;;;5136422;27;20205;-69
2021/06/28 03:55:39;;;;;;;8.77;8.07;;;;;;;;;;5136315;27;20195;-70
2021/06/28 03:58:10;;;;;;;8.27;7.55;;;;;;;;;;5136476;27;20202;-70
2021/06/28 04:00:38;;;;;;;8.90;8.10;;;;;;;;;;5119717;27;20556;-69
2021/06/28 04:03:07;;;;;;;8.48;7.78;;;;;;;;;;5115876;28;20282;-67
2021/06/28 04:05:35;;;;;;;8.63;7.82;;;;;;;;;;5115284;28;20315;-70
2021/06/28 04:08:04;;;;;;;8.60;7.85;;;;;;;;;;5115472;28;20686;-67
2021/06/28 04:10:32;;;;;;;9.00;8.25;;;;;;;;;;5115574;28;20289;-68
2021/06/28 04:13:00;;;;;;;8.32;7.63;;;;;;;;;;5115661;28;20410;-69
2021/06/28 04:15:30;;;;;;;8.60;7.80;;;;;;;;;;5115179;28;20655;-69
2021/06/28 04:17:58;;;;;;;8.60;7.68;;;;;;;;;;5115312;28;20199;-67
2021/06/28 04:20:27;;;;;;;8.60;7.90;;;;;;;;;;5115572;28;20227;-70
2021/06/28 04:22:55;;;;;;;9.02;8.23;;;;;;;;;;5115426;28;20291;-67
2021/06/28 04:25:24;;;;;;;9.43;8.60;;;;;;;;;;5113956;28;20218;-69
2021/06/28 04:27:52;;;;;;;9.77;8.98;;;;;;;;;;5115399;28;20199;-69
2021/06/28 04:30:21;;;;;;;9.00;8.10;;;;;;;;;;5114977;28;20207;-69
2021/06/28 04:32:51;;;;;;;10.48;9.20;;;;;;;;;;5115007;28;20295;-69
2021/06/28 04:35:22;;;;;;;9.93;8.93;;;;;;;;;;5115225;28;20210;-68
2021/06/28 04:37:50;;;;;;;8.57;7.88;;;;;;;;;;5115282;28;20183;-69
2021/06/28 04:40:19;;;;;;;10.43;8.95;;;;;;;;;;5114939;28;20222;-69
2021/06/28 04:42:48;;;;;;;9.60;8.80;;;;;;;;;;5115048;28;20221;-68
2021/06/28 04:45:17;;;;;;;10.27;9.20;;;;;;;;;;5114618;28;20219;-69
2021/06/28 04:47:46;;;;;;;9.85;8.85;;;;;;;;;;5114933;28;20281;-68
2021/06/28 04:50:16;;;;;;;9.27;8.48;;;;;;;;;;5114589;28;20227;-71
2021/06/28 04:52:45;;;;;;;9.88;9.00;;;;;;;;;;5110057;28;20198;-70
2021/06/28 04:55:14;;;;;;;9.65;8.77;;;;;;;;;;5112282;28;20294;-69
2021/06/28 04:57:43;;;;;;;9.18;8.32;;;;;;;;;;5114722;28;20294;-68
2021/06/28 05:00:13;;;;;;;9.40;8.60;;;;;;;;;;5106343;28;20675;-68
2021/06/28 05:02:41;;;;;;;10.50;9.07;;;;;;;;;;5102900;28;20282;-69
2021/06/28 05:05:10;;;;;;;9.90;9.00;;;;;;;;;;5102465;28;20302;-71
2021/06/28 05:07:40;;;;;;;11.85;10.73;;;;;;;;;;5095913;28;20374;-70
2021/06/28 05:10:08;;;;;;;10.80;9.65;;;;;;;;;;5102177;28;20291;-69
2021/06/28 05:12:37;;;;;;;11.77;9.70;;;;;;;;;;5109401;28;20283;-68
2021/06/28 05:15:06;;;;;;;12.45;9.35;;;;;;;;;;5093483;28;20196;-69
2021/06/28 05:17:34;;;;;;;9.50;8.63;;;;;;;;;;5093518;28;20210;-70
2021/06/28 05:20:02;;;;;;;10.07;8.88;;;;;;;;;;5093798;28;20529;-68
2021/06/28 05:22:31;;;;;;;10.00;9.07;;;;;;;;;;5093827;28;20200;-69
2021/06/28 05:25:00;;;;;;;10.43;9.48;;;;;;;;;;5101776;28;20211;-70
2021/06/28 05:27:28;;;;;;;10.38;9.40;;;;;;;;;;5104854;28;20208;-69
2021/06/28 05:29:57;;;;;;;10.23;9.32;;;;;;;;;;5108077;28;20572;-69
2021/06/28 05:32:26;;;;;;;10.98;9.63;;;;;;;;;;5103221;28;20288;-70
2021/06/28 05:34:54;;;;;;;10.35;9.45;;;;;;;;;;5100497;28;20213;-70
2021/06/28 05:37:23;;;;;;;10.32;9.43;;;;;;;;;;5105357;28;20205;-69
2021/06/28 05:39:51;;;;;;;9.93;9.02;;;;;;;;;;5108372;28;20246;-69
2021/06/28 05:42:21;;;;;;;10.38;9.27;;;;;;;;;;5093622;28;20196;-69
2021/06/28 05:44:49;;;;;;;9.75;8.85;;;;;;;;;;5096374;28;20195;-69
2021/06/28 05:47:21;;;;;;;9.70;8.80;;;;;;;;;;5102342;28;20210;-69
2021/06/28 05:49:50;;;;;;;11.00;10.05;;;;;;;;;;5109122;27;20257;-69
2021/06/28 05:52:20;;;;;;;10.35;9.45;;;;;;;;;;5131206;27;20227;-71
2021/06/28 05:54:48;;;;;;;10.20;9.20;;;;;;;;;;5126429;27;20195;-69
2021/06/28 05:57:18;;;;;;;10.40;9.40;;;;;;;;;;5130443;27;20222;-69
2021/06/28 05:59:48;;;;;;;9.55;8.75;;;;;;;;;;5130237;27;20623;-69
2021/06/28 06:02:18;;;;;;;10.50;8.85;;;;;;;;;;5119995;27;20234;-70
2021/06/28 06:04:47;;;;;;;10.82;9.73;;;;;;;;;;5130215;27;20662;-71
2021/06/28 06:07:15;;;;;;;10.27;9.38;;;;;;;;;;5130747;27;20571;-70
2021/06/28 06:09:45;;;;;;;11.48;10.27;;;;;;;;;;5130881;27;20301;-70
2021/06/28 06:12:13;;;;;;;10.52;9.52;;;;;;;;;;5130532;27;20885;-70
2021/06/28 06:14:42;;;;;;;11.95;9.48;;;;;;;;;;5130483;27;20297;-70
2021/06/28 06:17:11;;;;;;;9.88;9.02;;;;;;;;;;5130782;27;20290;-68
2021/06/28 06:19:41;;;;;;;9.60;8.80;;;;;;;;;;5130599;27;20289;-67
2021/06/28 06:22:10;;;;;;;9.07;8.38;;;;;;;;;;5130833;27;20202;-64
2021/06/28 06:24:38;;;;;;;10.48;9.30;;;;;;;;;;5130324;27;20647;-65
2021/06/28 06:27:07;;;;;;;10.98;9.80;;;;;;;;;;5130536;27;20709;-67
2021/06/28 06:29:35;;;;;;;9.82;8.93;;;;;;;;;;5130452;27;20198;-66
2021/06/28 06:32:04;;;;;;;9.10;8.32;;;;;;;;;;5130751;27;20301;-68
2021/06/28 06:34:33;;;;;;;9.43;8.55;;;;;;;;;;5130559;28;20203;-68
2021/06/28 06:37:02;;;;;;;9.57;8.75;;;;;;;;;;5130641;28;20198;-69
2021/06/28 06:39:31;;;;;;;9.00;8.20;;;;;;;;;;5130729;28;20285;-68
2021/06/28 06:41:59;;;;;;;9.88;8.93;;;;;;;;;;5130371;28;20241;-68
2021/06/28 06:44:28;;;;;;;10.43;9.40;;;;;;;;;;5130645;28;20328;-61
2021/06/28 06:46:56;;;;;;;8.60;7.70;;;;;;;;;;5132540;28;20220;-61
2021/06/28 06:49:24;;;;;;;9.25;8.27;;;;;;;;;;5135007;27;20240;-61
2021/06/28 06:51:54;;;;;;;9.02;8.20;;;;;;;;;;5135702;27;20234;-60
2021/06/28 06:54:22;;;;;;;9.65;8.75;;;;;;;;;;5134431;27;20216;-60
2021/06/28 06:56:50;;;;;;;10.25;9.32;;;;;;;;;;5118451;27;20563;-66
2021/06/28 06:59:18;;;;;;;10.25;9.30;;;;;;;;;;5122785;27;20229;-66
2021/06/28 07:01:47;;;;;;;9.38;8.57;;;;;;;;;;5134405;27;20205;-66
2021/06/28 07:04:15;;;;;;;8.95;8.13;;;;;;;;;;5133934;27;20642;-69
2021/06/28 07:06:44;;;;;;;10.02;9.13;;;;;;;;;;5133954;27;20876;-74
2021/06/28 07:09:17;;;;;;;9.13;8.02;;;;;;;;;;5134166;27;20187;-68
2021/06/28 07:11:45;;;;;;;9.18;8.27;;;;;;;;;;5134124;27;20293;-67
2021/06/28 07:14:13;;;;;;;9.40;8.50;;;;;;;;;;5133940;27;20222;-68
2021/06/28 07:16:42;;;;;;;8.50;7.82;;;;;;;;;;5133760;27;20312;-65
2021/06/28 07:19:10;;;;;;;10.13;8.48;;;;;;;;;;5134259;27;20202;-65
2021/06/28 07:21:39;;;;;;;9.98;8.90;;;;;;;;;;5133696;27;20230;-64
2021/06/28 07:24:07;;;;;;;9.25;8.35;;;;;;;;;;5133542;27;20650;-64
2021/06/28 07:26:37;;;;;;;10.32;9.10;;;;;;;;;;5133545;27;20218;-63
2021/06/28 07:29:06;;;;;;;9.82;8.63;;;;;;;;;;5133588;27;20297;-63
2021/06/28 07:31:34;;;;;;;10.15;9.15;;;;;;;;;;5133446;27;20285;-63
2021/06/28 07:34:03;;;;;;;9.50;8.68;;;;;;;;;;5133756;27;20228;-63
2021/06/28 07:36:31;;;;;;;11.38;8.15;;;;;;;;;;5133472;27;20289;-62
2021/06/28 07:39:02;;;;;;;8.73;7.82;;;;;;;;;;5133269;27;20641;-64
2021/06/28 07:41:31;;;;;;;8.55;7.65;;;;;;;;;;5133717;27;20187;-63
2021/06/28 07:44:01;;;;;;;9.00;8.18;;;;;;;;;;5133456;27;20198;-61
2021/06/28 07:46:29;;;;;;;8.98;7.60;;;;;;;;;;5133409;27;20207;-68
2021/06/28 07:48:58;;;;;;;9.63;8.75;;;;;;;;;;5133019;27;20206;-70
2021/06/28 07:51:26;;;;;;;9.00;8.20;;;;;;;;;;5133470;27;20179;-65
2021/06/28 07:53:54;;;;;;;10.35;8.75;;;;;;;;;;5132692;27;20666;-68
2021/06/28 07:56:22;;;;;;;9.63;8.27;;;;;;;;;;5134363;27;20281;-77
2021/06/28 07:58:51;;;;;;;8.85;8.07;;;;;;;;;;5135495;27;20298;-77
2021/06/28 08:01:22;;;;;;;9.75;8.10;;;;;;;;;;5132673;27;20286;-67
2021/06/28 08:03:50;;;;;;;8.82;7.93;;;;;;;;;;5132916;27;20359;-67
2021/06/28 08:06:19;;;;;;;9.38;8.30;;;;;;;;;;5132964;27;20291;-68
2021/06/28 08:08:48;;;;;;;8.50;7.72;;;;;;;;;;5132378;27;20209;-69
2021/06/28 08:11:16;;;;;;;8.07;7.47;;;;;;;;;;5133107;27;20201;-69
2021/06/28 08:13:49;;;;;;;8.73;7.97;;;;;;;;;;5133480;27;20331;-69
2021/06/28 08:16:18;;;;;;;8.25;7.55;;;;;;;;;;5133213;27;20222;-59
2021/06/28 08:18:49;;;;;;;8.40;7.65;;;;;;;;;;5133160;27;20297;-68
2021/06/28 08:21:33;;;;;;;8.80;8.00;;;;;;;;;;5133075;27;20198;-62
2021/06/28 08:24:01;;;;;;;8.55;7.72;;;;;;;;;;5132427;27;20734;-63
2021/06/28 08:26:29;;;;;;;8.48;7.43;;;;;;;;;;5132786;27;20230;-63
2021/06/28 08:28:58;;;;;;;7.78;7.13;;;;;;;;;;5132747;27;20203;-63
2021/06/28 08:31:26;;;;;;;8.25;7.55;;;;;;;;;;5132437;27;20206;-62
2021/06/28 08:34:11;;;;;;;7.68;7.07;;;;;;;;;;5132340;27;20613;-68
2021/06/28 08:36:40;;;;;;;7.63;7.03;;;;;;;;;;5132485;27;20198;-67
2021/06/28 08:39:08;;;;;;;7.35;6.75;;;;;;;;;;5132191;27;20650;-66
2021/06/28 08:41:36;;;;;;;8.88;6.78;;;;;;;;;;5132220;27;20298;-62
2021/06/28 08:44:05;;;;;;;7.15;6.55;;;;;;;;;;5131811;27;20220;-63
2021/06/28 08:46:33;;;;;;;8.52;7.82;;;;;;;;;;5115270;27;20203;-63
2021/06/28 08:49:02;;;;;;;8.20;7.50;;;;;;;;;;5128648;27;20238;-68
2021/06/28 08:51:31;;;;;;;10.57;7.45;;;;;;;;;;5128044;27;20553;-64
2021/06/28 08:54:05;;;;;;;9.02;7.05;;;;;;;;;;5132215;27;20183;-64
2021/06/28 08:56:33;;;;;;;7.90;7.20;;;;;;;;;;5133651;27;20265;-66
2021/06/28 08:59:03;;;;;;;7.57;6.88;;;;;;;;;;5150187;27;20202;-65
2021/06/28 09:01:32;;;;;;;7.45;6.85;;;;;;;;;;5131770;27;20213;-66
2021/06/28 09:04:01;;;;;;;7.25;6.65;;;;;;;;;;5129850;27;20237;-68
2021/06/28 09:06:31;;;;;;;7.63;7.03;;;;;;;;;;5111421;27;20209;-69
2021/06/28 09:09:01;;;;;;;7.72;7.03;;;;;;;;;;5116390;27;20211;-62
2021/06/28 09:11:29;;;;;;;7.82;7.22;;;;;;;;;;5128390;27;20242;-62
2021/06/28 09:13:58;;;;;;;8.05;7.38;;;;;;;;;;5111336;28;20222;-62
2021/06/28 09:16:31;;;;;;;8.50;7.50;;;;;;;;;;5118737;27;20199;-63
2021/06/28 09:19:02;;;;;;;7.20;6.60;;;;;;;;;;5121036;27;20594;-65
2021/06/28 09:21:33;;;;;;;7.97;7.35;;;;;;;;;;5110868;28;20626;-68
2021/06/28 09:24:02;;;;;;;7.80;7.20;;;;;;;;;;5110856;28;20248;-67
2021/06/28 09:26:32;;;;;;;7.53;6.93;;;;;;;;;;5110468;28;20199;-65
2021/06/28 09:29:01;;;;;;;7.32;6.80;;;;;;;;;;5110823;28;20227;-61
2021/06/28 09:31:34;;;;;;;7.00;6.50;;;;;;;;;;5110543;28;20214;-61
2021/06/28 09:34:07;;;;;;;7.00;6.30;;;;;;;;;;5110400;28;20184;-59
2021/06/28 09:36:46;;;;;;;6.63;6.13;;;;;;;;;;5110449;28;20252;-67
2021/06/28 09:39:19;;;;;;;7.43;6.82;;;;;;;;;;5110834;28;20229;-67
2021/06/28 09:41:47;;;;;;;6.85;6.25;;;;;;;;;;5110188;27;20752;-70
2021/06/28 09:44:16;;;;;;;6.95;6.35;;;;;;;;;;5110521;28;20245;-69
2021/06/28 09:46:44;;;;;;;7.55;6.93;;;;;;;;;;5110781;28;20245;-70
2021/06/28 09:49:17;;;;;;;7.50;6.80;;;;;;;;;;5110745;28;20367;-66
2021/06/28 09:51:46;;;;;;;7.03;6.50;;;;;;;;;;5110809;28;20188;-68
2021/06/28 09:54:16;;;;;;;7.00;6.47;;;;;;;;;;5116624;27;20248;-67
2021/06/28 09:56:46;;;;;;;6.53;6.07;;;;;;;;;;5128859;27;20700;-70
2021/06/28 09:59:22;;;;;;;7.10;6.47;;;;;;;;;;5129790;27;20664;-68
2021/06/28 10:01:52;;;;;;;6.97;6.38;;;;;;;;;;5130151;27;20638;-68
2021/06/28 10:04:38;;;;;;;6.60;6.10;;;;;;;;;;5130645;27;20179;-68
2021/06/28 10:07:22;;;;;;;6.03;5.60;;;;;;;;;;5123226;27;20601;-69
2021/06/28 10:10:05;;;;;;;5.70;5.30;;;;;;;;;;5130389;27;20183;-68
2021/06/28 10:12:33;;;;;;;7.15;5.47;;;;;;;;;;5112428;27;20662;-67
2021/06/28 10:15:02;;;;;;;6.05;5.55;;;;;;;;;;5125075;27;20203;-68
2021/06/28 10:17:31;;;;;;;6.68;6.07;;;;;;;;;;5110557;28;20200;-68
2021/06/28 10:19:59;;;;;;;5.75;5.35;;;;;;;;;;5110470;27;20759;-60
2021/06/28 10:22:28;;;;;;;5.50;5.10;;;;;;;;;;5121844;27;20251;-62
2021/06/28 10:25:00;;;;;;;5.75;5.35;;;;;;;;;;5114934;27;20906;-62
2021/06/28 10:27:29;;;;;;;6.00;5.60;;;;;;;;;;5123720;27;20568;-61
2021/06/28 10:29:57;;;;;;;6.00;5.60;;;;;;;;;;5109315;28;20401;-67
2021/06/28 10:32:25;;;;;;;6.07;5.53;;;;;;;;;;5109366;28;20686;-67
2021/06/28 10:34:54;;;;;;;6.15;5.68;;;;;;;;;;5109289;28;20207;-69
2021/06/28 10:37:35;;;;;;;6.30;5.80;;;;;;;;;;5109686;28;20344;-67
2021/06/28 10:40:05;;;;;;;6.25;5.65;;;;;;;;;;5109271;28;20199;-60
2021/06/28 10:42:34;;;;;;;6.95;6.28;;;;;;;;;;5109654;28;20203;-63
2021/06/28 10:45:02;;;;;;;6.55;5.95;;;;;;;;;;5109015;28;20242;-65
2021/06/28 10:47:34;;;;;;;5.70;5.20;;;;;;;;;;5109353;28;20271;-61
2021/06/28 10:50:04;;;;;;;5.47;5.07;;;;;;;;;;5109032;28;20321;-61
2021/06/28 10:52:49;;;;;;;5.22;4.82;;;;;;;;;;5109387;28;20203;-62
2021/06/28 10:55:38;;;;;;;5.95;5.43;;;;;;;;;;5109457;28;20274;-62
2021/06/28 10:58:21;;;;;;;5.30;4.97;;;;;;;;;;5109122;28;20210;-65
2021/06/28 11:00:50;;;;;;;5.65;5.22;;;;;;;;;;5126795;28;20189;-66
2021/06/28 11:03:33;;;;;;;6.38;5.53;;;;;;;;;;5129774;28;20263;-64
2021/06/28 11:06:15;;;;;;;5.78;5.38;;;;;;;;;;5129755;28;20269;-70
2021/06/28 11:08:58;;;;;;;4.85;4.53;;;;;;;;;;5129782;28;20289;-64
2021/06/28 11:11:45;;;;;;;6.10;5.60;;;;;;;;;;5130091;28;20182;-71
2021/06/28 11:14:37;;;;;;;5.43;5.00;;;;;;;;;;5129982;28;20285;-70
2021/06/28 11:17:07;;;;;;;4.88;4.53;;;;;;;;;;5131156;28;20203;-72
2021/06/28 11:19:53;;;;;;;5.50;4.95;;;;;;;;;;5132396;28;20183;-71
2021/06/28 11:22:36;;;;;;;5.78;5.28;;;;;;;;;;5130552;28;20186;-71
2021/06/28 11:25:12;;;;;;;5.10;4.70;;;;;;;;;;5129964;28;20270;-70
2021/06/28 11:27:42;;;;;;;6.00;5.50;;;;;;;;;;5130102;28;20282;-69
2021/06/28 11:30:21;;;;;;;5.50;5.07;;;;;;;;;;5129399;28;20764;-70
2021/06/28 11:32:57;;;;;;;5.32;4.82;;;;;;;;;;5129518;28;20682;-73
2021/06/28 11:35:35;;;;;;;5.32;4.82;;;;;;;;;;5131042;27;20288;-67
2021/06/28 11:38:17;;;;;;;5.45;4.95;;;;;;;;;;5133302;27;20198;-68
2021/06/28 11:40:51;;;;;;;5.80;5.40;;;;;;;;;;5132637;27;20202;-66
2021/06/28 11:43:35;;;;;;;5.40;4.90;;;;;;;;;;5132574;27;20292;-72
2021/06/28 11:46:03;;;;;;;5.50;5.10;;;;;;;;;;5133233;27;20302;-71
2021/06/28 11:48:32;;;;;;;5.10;4.70;;;;;;;;;;5133124;27;20305;-70
2021/06/28 11:51:01;;;;;;;5.53;5.13;;;;;;;;;;5132827;27;20229;-70
2021/06/28 11:53:29;;;;;;;5.65;5.13;;;;;;;;;;5133224;27;20301;-70
2021/06/28 11:55:59;;;;;;;5.40;4.90;;;;;;;;;;5133030;27;20732;-67
2021/06/28 11:58:27;;;;;;;4.90;4.60;;;;;;;;;;5132790;27;20293;-65
2021/06/28 12:01:05;;;;;;;8.35;4.57;;;;;;;;;;5132700;27;20555;-67
2021/06/28 12:03:38;;;;;;;5.15;4.75;;;;;;;;;;5132822;27;20676;-67
2021/06/28 12:06:10;;;;;;;5.47;5.07;;;;;;;;;;5133475;27;20217;-69
2021/06/28 12:08:39;;;;;;;4.30;4.00;;;;;;;;;;5133128;27;20203;-63
2021/06/28 12:11:10;;;;;;;4.88;4.47;;;;;;;;;;5133134;27;20195;-63
2021/06/28 12:13:40;;;;;;;5.68;5.18;;;;;;;;;;5133182;27;20281;-62
2021/06/28 12:16:19;;;;;;;5.15;4.75;;;;;;;;;;5132638;27;20278;-64
2021/06/28 12:18:47;;;;;;;5.43;4.93;;;;;;;;;;5133017;27;20190;-64
2021/06/28 12:21:27;;;;;;;4.68;4.32;;;;;;;;;;5133156;27;20267;-64
2021/06/28 12:24:02;;;;;;;5.70;5.20;;;;;;;;;;5132863;27;20221;-67
2021/06/28 12:26:32;;;;;;;5.28;4.88;;;;;;;;;;5132777;27;20289;-66
2021/06/28 12:29:21;;;;;;;5.50;5.10;;;;;;;;;;5132835;27;20313;-66
2021/06/28 12:31:49;;;;;;;5.30;4.60;;;;;;;;;;5132838;27;20191;-61
2021/06/28 12:34:20;;;;;;;5.20;4.80;;;;;;;;;;5132593;27;20206;-61
2021/06/28 12:36:51;;;;;;;4.85;4.50;;;;;;;;;;5132140;27;20193;-61
2021/06/28 12:39:23;;;;;;;4.90;4.50;;;;;;;;;;5132185;27;20277;-63
2021/06/28 12:41:52;;;;;;;4.85;4.45;;;;;;;;;;5132234;27;20275;-63
2021/06/28 12:44:21;;;;;;;4.20;3.90;;;;;;;;;;5131612;27;20240;-63
2021/06/28 12:46:50;;;;;;;4.97;4.50;;;;;;;;;;5130480;27;20294;-62
2021/06/28 12:49:19;;;;;;;4.57;4.25;;;;;;;;;;5132190;27;20298;-68
2021/06/28 12:51:47;;;;;;;5.00;4.50;;;;;;;;;;5132494;27;20568;-73
2021/06/28 12:54:25;;;;;;;5.15;4.80;;;;;;;;;;5132723;27;20224;-75
2021/06/28 12:56:55;;;;;;;4.68;4.38;;;;;;;;;;5132697;27;20204;-66
2021/06/28 12:59:33;;;;;;;5.25;4.85;;;;;;;;;;5126861;27;20199;-65
2021/06/28 13:02:01;;;;;;;4.72;4.43;;;;;;;;;;5113270;28;20187;-67
2021/06/28 13:04:30;;;;;;;4.80;4.40;;;;;;;;;;5113583;28;20271;-68
2021/06/28 13:06:58;;;;;;;5.55;5.05;;;;;;;;;;5112869;28;20301;-68
2021/06/28 13:09:27;;;;;;;4.70;4.40;;;;;;;;;;5110708;28;20310;-61
2021/06/28 13:11:57;;;;;;;5.03;4.63;;;;;;;;;;5111092;28;20290;-62
2021/06/28 13:14:27;;;;;;;4.82;4.43;;;;;;;;;;5111257;28;20286;-63
2021/06/28 13:17:14;;;;;;;4.97;4.57;;;;;;;;;;5111377;28;20204;-62
2021/06/28 13:19:44;;;;;;;4.85;4.55;;;;;;;;;;5111296;28;20221;-62
2021/06/28 13:22:12;;;;;;;4.47;4.18;;;;;;;;;;5111158;28;20209;-65
2021/06/28 13:24:40;;;;;;;4.68;4.38;;;;;;;;;;5110877;28;20286;-65
2021/06/28 13:27:11;;;;;;;4.28;3.97;;;;;;;;;;5110679;28;20569;-66
2021/06/28 13:29:40;;;;;;;4.47;4.10;;;;;;;;;;5111004;28;20242;-69
2021/06/28 13:32:10;;;;;;;5.07;4.68;;;;;;;;;;5099472;28;20299;-66
2021/06/28 13:34:45;;;;;;;5.03;4.63;;;;;;;;;;5132658;27;20604;-65
2021/06/28 13:37:16;;;;;;;4.88;4.47;;;;;;;;;;5134609;27;20280;-67
2021/06/28 13:39:49;;;;;;;4.50;4.20;;;;;;;;;;5134448;27;20286;-66
2021/06/28 13:42:23;;;;;;;5.25;4.85;;;;;;;;;;5134265;27;20269;-65
2021/06/28 13:45:02;;;;;;;4.82;4.43;;;;;;;;;;5119266;27;20666;-62
2021/06/28 13:47:31;;;;;;;4.60;4.30;;;;;;;;;;5131644;27;20593;-65
2021/06/28 13:49:59;;;;;;;4.57;4.00;;;;;;;;;;5131175;27;20649;-62
2021/06/28 13:52:27;;;;;;;4.78;4.38;;;;;;;;;;5131483;27;20580;-63
2021/06/28 13:54:56;;;;;;;4.38;4.07;;;;;;;;;;5131247;27;20617;-64
2021/06/28 13:57:25;;;;;;;4.47;4.18;;;;;;;;;;5131277;27;20200;-61
2021/06/28 13:59:54;;;;;;;4.30;4.00;;;;;;;;;;5131188;27;20269;-63
2021/06/28 14:02:22;;;;;;;4.70;4.30;;;;;;;;;;5131224;27;20203;-68
2021/06/28 14:04:50;;;;;;;4.15;3.85;;;;;;;;;;5131146;27;20292;-68
2021/06/28 14:07:18;;;;;;;5.03;4.63;;;;;;;;;;5130756;27;20209;-68
2021/06/28 14:09:46;;;;;;;7.00;4.80;;;;;;;;;;5130865;27;20218;-66
2021/06/28 14:12:15;;;;;;;5.13;4.40;;;;;;;;;;5130808;27;20293;-64
2021/06/28 14:14:44;;;;;;;4.97;4.60;;;;;;;;;;5130994;27;20194;-63
2021/06/28 14:17:12;;;;;;;5.20;4.80;;;;;;;;;;5130845;27;20205;-64
2021/06/28 14:19:41;;;;;;;5.60;5.10;;;;;;;;;;5130954;27;20233;-70
2021/06/28 14:22:09;;;;;;;6.45;4.85;;;;;;;;;;5130846;27;20289;-60
2021/06/28 14:24:37;;;;;;;5.47;5.07;;;;;;;;;;5130854;27;20198;-67
2021/06/28 14:27:06;;;;;;;5.00;4.60;;;;;;;;;;5130937;27;20195;-65
2021/06/28 14:29:34;;;;;;;5.38;4.97;;;;;;;;;;5130699;27;20626;-69
2021/06/28 14:32:04;;;;;;;5.32;4.93;;;;;;;;;;5130735;27;20202;-63
2021/06/28 14:34:33;;;;;;;5.18;4.68;;;;;;;;;;5127109;27;20202;-68
2021/06/28 14:37:01;;;;;;;5.13;4.70;;;;;;;;;;5112845;28;20238;-68
2021/06/28 14:39:29;;;;;;;5.28;4.78;;;;;;;;;;5113120;28;20199;-69
2021/06/28 14:41:57;;;;;;;4.78;4.40;;;;;;;;;;5112979;28;20219;-69
2021/06/28 14:44:26;;;;;;;4.90;4.50;;;;;;;;;;5112644;28;20207;-66
2021/06/28 14:46:54;;;;;;;4.70;4.30;;;;;;;;;;5112775;28;20310;-68
2021/06/28 14:49:24;;;;;;;6.15;4.75;;;;;;;;;;5112362;28;20318;-68
2021/06/28 14:51:52;;;;;;;5.30;4.90;;;;;;;;;;5112922;28;20306;-67
2021/06/28 14:54:20;;;;;;;4.78;4.40;;;;;;;;;;5112987;28;20231;-68
2021/06/28 14:56:49;;;;;;;6.50;4.93;;;;;;;;;;5113047;28;20198;-66